sensor_id;sensor_type;location;lat;lon;timestamp;temperature;humidity
46458;DHT22;32155;54.076;12.092;2022-08-20T00:19:19;20.00;99.90
46458;DHT22;32155;54.076;12.092;2022-08-20T00:31:08;19.80;99.90
46458;DHT22;32155;54.076;12.092;2022-08-20T00:33:34;19.80;99.90
46458;DHT22;32155;54.076;12.092;2022-08-20T00:36:00;19.80;99.90
46458;DHT22;32155;54.076;12.092;2022-08-20T00:38:34;19.80;99.90
46458;DHT22;32155;54.076;12.092;2022-08-20T00:41:02;19.90;99.90
46458;DHT22;32155;54.076;12.092;2022-08-20T00:43:30;19.80;99.90
46458;DHT22;32155;54.076;12.092;2022-08-20T00:45:57;19.80;99.90
46458;DHT22;32155;54.076;12.092;2022-08-20T00:48:24;19.90;99.90
46458;DHT22;32155;54.076;12.092;2022-08-20T00:50:50;19.90;99.90
46458;DHT22;32155;54.076;12.092;2022-08-20T00:53:16;19.90;99.90
46458;DHT22;32155;54.076;12.092;2022-08-20T00:55:43;19.90;99.90
46458;DHT22;32155;54.076;12.092;2022-08-20T00:58:09;19.90;99.90
46458;DHT22;32155;54.076;12.092;2022-08-20T01:00:38;19.90;99.90
46458;DHT22;32155;54.076;12.092;2022-08-20T01:03:05;19.90;99.90
46458;DHT22;32155;54.076;12.092;2022-08-20T01:05:36;19.90;99.90
46458;DHT22;32155;54.076;12.092;2022-08-20T01:08:02;19.90;99.90
46458;DHT22;32155;54.076;12.092;2022-08-20T01:10:28;19.90;99.90
46458;DHT22;32155;54.076;12.092;2022-08-20T01:12:57;19.90;99.90
46458;DHT22;32155;54.076;12.092;2022-08-20T01:15:23;19.90;99.90
46458;DHT22;32155;54.076;12.092;2022-08-20T01:17:53;19.90;99.90
46458;DHT22;32155;54.076;12.092;2022-08-20T01:20:24;19.90;99.90
46458;DHT22;32155;54.076;12.092;2022-08-20T01:28:43;19.80;99.90
46458;DHT22;32155;54.076;12.092;2022-08-20T01:31:10;19.90;99.90
46458;DHT22;32155;54.076;12.092;2022-08-20T01:33:37;19.80;99.90
46458;DHT22;32155;54.076;12.092;2022-08-20T01:36:03;19.80;99.90
46458;DHT22;32155;54.076;12.092;2022-08-20T01:38:29;19.80;99.90
46458;DHT22;32155;54.076;12.092;2022-08-20T01:43:43;19.70;99.90
46458;DHT22;32155;54.076;12.092;2022-08-20T01:46:09;19.70;99.90
46458;DHT22;32155;54.076;12.092;2022-08-20T01:48:36;19.70;99.90
46458;DHT22;32155;54.076;12.092;2022-08-20T01:51:05;19.80;99.90
46458;DHT22;32155;54.076;12.092;2022-08-20T01:53:32;19.80;99.90
46458;DHT22;32155;54.076;12.092;2022-08-20T01:55:59;19.70;99.90
46458;DHT22;32155;54.076;12.092;2022-08-20T01:58:25;19.70;99.90
46458;DHT22;32155;54.076;12.092;2022-08-20T02:00:54;19.70;99.90
46458;DHT22;32155;54.076;12.092;2022-08-20T02:03:22;19.70;99.90
46458;DHT22;32155;54.076;12.092;2022-08-20T02:05:48;19.70;99.90
46458;DHT22;32155;54.076;12.092;2022-08-20T02:08:13;19.70;99.90
46458;DHT22;32155;54.076;12.092;2022-08-20T02:10:39;19.70;99.90
46458;DHT22;32155;54.076;12.092;2022-08-20T02:13:05;19.70;99.90
46458;DHT22;32155;54.076;12.092;2022-08-20T02:15:33;19.70;99.90
46458;DHT22;32155;54.076;12.092;2022-08-20T02:17:58;19.60;99.90
46458;DHT22;32155;54.076;12.092;2022-08-20T02:20:28;19.60;99.90
46458;DHT22;32155;54.076;12.092;2022-08-20T02:22:56;19.70;99.90
46458;DHT22;32155;54.076;12.092;2022-08-20T02:25:23;19.70;99.90
46458;DHT22;32155;54.076;12.092;2022-08-20T02:27:50;19.60;99.90
46458;DHT22;32155;54.076;12.092;2022-08-20T02:30:21;19.60;99.90
46458;DHT22;32155;54.076;12.092;2022-08-20T02:32:46;19.50;99.90
46458;DHT22;32155;54.076;12.092;2022-08-20T02:35:13;19.50;99.90
46458;DHT22;32155;54.076;12.092;2022-08-20T02:37:40;19.50;99.90
46458;DHT22;32155;54.076;12.092;2022-08-20T02:40:07;19.50;99.90
46458;DHT22;32155;54.076;12.092;2022-08-20T02:42:35;19.50;99.90
46458;DHT22;32155;54.076;12.092;2022-08-20T02:45:03;19.50;99.90
46458;DHT22;32155;54.076;12.092;2022-08-20T02:47:30;19.50;99.90
46458;DHT22;32155;54.076;12.092;2022-08-20T02:49:56;19.50;99.90
46458;DHT22;32155;54.076;12.092;2022-08-20T02:52:24;19.40;99.90
46458;DHT22;32155;54.076;12.092;2022-08-20T02:54:49;19.40;99.90
46458;DHT22;32155;54.076;12.092;2022-08-20T02:57:16;19.40;99.90
46458;DHT22;32155;54.076;12.092;2022-08-20T02:59:47;19.40;99.90
46458;DHT22;32155;54.076;12.092;2022-08-20T03:02:13;19.40;99.90
46458;DHT22;32155;54.076;12.092;2022-08-20T03:04:38;19.40;99.90
46458;DHT22;32155;54.076;12.092;2022-08-20T03:07:04;19.40;99.90
46458;DHT22;32155;54.076;12.092;2022-08-20T03:09:30;19.30;99.90
46458;DHT22;32155;54.076;12.092;2022-08-20T03:11:56;19.30;99.90
46458;DHT22;32155;54.076;12.092;2022-08-20T03:14:24;19.30;99.90
46458;DHT22;32155;54.076;12.092;2022-08-20T03:16:50;19.30;99.90
46458;DHT22;32155;54.076;12.092;2022-08-20T03:19:16;19.30;99.90
46458;DHT22;32155;54.076;12.092;2022-08-20T03:21:41;19.30;99.90
46458;DHT22;32155;54.076;12.092;2022-08-20T03:24:07;19.20;99.90
46458;DHT22;32155;54.076;12.092;2022-08-20T03:26:33;19.20;99.90
46458;DHT22;32155;54.076;12.092;2022-08-20T03:28:59;19.20;99.90
46458;DHT22;32155;54.076;12.092;2022-08-20T03:31:24;19.20;99.90
46458;DHT22;32155;54.076;12.092;2022-08-20T03:33:50;19.20;99.90
46458;DHT22;32155;54.076;12.092;2022-08-20T03:36:15;19.20;99.90
46458;DHT22;32155;54.076;12.092;2022-08-20T03:38:40;19.20;99.90
46458;DHT22;32155;54.076;12.092;2022-08-20T03:41:06;19.10;99.90
46458;DHT22;32155;54.076;12.092;2022-08-20T03:43:32;19.10;99.90
46458;DHT22;32155;54.076;12.092;2022-08-20T03:45:57;19.10;99.90
46458;DHT22;32155;54.076;12.092;2022-08-20T03:48:26;19.00;99.90
46458;DHT22;32155;54.076;12.092;2022-08-20T03:50:52;19.00;99.90
46458;DHT22;32155;54.076;12.092;2022-08-20T03:53:18;19.00;99.90
46458;DHT22;32155;54.076;12.092;2022-08-20T03:55:45;18.90;99.90
46458;DHT22;32155;54.076;12.092;2022-08-20T03:58:11;18.90;99.90
46458;DHT22;32155;54.076;12.092;2022-08-20T04:03:03;18.90;99.90
46458;DHT22;32155;54.076;12.092;2022-08-20T04:05:32;18.80;99.90
46458;DHT22;32155;54.076;12.092;2022-08-20T04:07:59;18.80;99.90
46458;DHT22;32155;54.076;12.092;2022-08-20T04:10:25;18.80;99.90
46458;DHT22;32155;54.076;12.092;2022-08-20T04:12:53;18.70;99.90
46458;DHT22;32155;54.076;12.092;2022-08-20T04:15:19;18.70;99.90
46458;DHT22;32155;54.076;12.092;2022-08-20T04:17:46;18.70;99.90
46458;DHT22;32155;54.076;12.092;2022-08-20T04:20:14;18.70;99.90
46458;DHT22;32155;54.076;12.092;2022-08-20T04:22:39;18.70;99.90
46458;DHT22;32155;54.076;12.092;2022-08-20T04:25:05;18.70;99.90
46458;DHT22;32155;54.076;12.092;2022-08-20T04:27:35;18.70;99.90
46458;DHT22;32155;54.076;12.092;2022-08-20T04:30:00;18.70;99.90
46458;DHT22;32155;54.076;12.092;2022-08-20T04:32:28;18.80;99.90
46458;DHT22;32155;54.076;12.092;2022-08-20T04:34:54;18.80;99.90
46458;DHT22;32155;54.076;12.092;2022-08-20T04:37:20;18.80;99.90
46458;DHT22;32155;54.076;12.092;2022-08-20T04:39:46;18.90;99.90
46458;DHT22;32155;54.076;12.092;2022-08-20T04:42:33;19.00;99.90
46458;DHT22;32155;54.076;12.092;2022-08-20T04:44:58;19.00;99.90
46458;DHT22;32155;54.076;12.092;2022-08-20T04:47:24;19.00;99.90
46458;DHT22;32155;54.076;12.092;2022-08-20T04:49:50;19.10;99.90
46458;DHT22;32155;54.076;12.092;2022-08-20T04:52:16;19.20;99.90
46458;DHT22;32155;54.076;12.092;2022-08-20T04:54:41;19.20;99.90
46458;DHT22;32155;54.076;12.092;2022-08-20T04:57:08;19.30;99.90
46458;DHT22;32155;54.076;12.092;2022-08-20T04:59:33;19.30;99.90
46458;DHT22;32155;54.076;12.092;2022-08-20T05:01:59;19.40;99.90
46458;DHT22;32155;54.076;12.092;2022-08-20T05:04:26;19.40;99.90
46458;DHT22;32155;54.076;12.092;2022-08-20T05:06:52;19.50;99.90
46458;DHT22;32155;54.076;12.092;2022-08-20T05:09:17;19.50;99.90
46458;DHT22;32155;54.076;12.092;2022-08-20T05:11:43;19.60;99.90
46458;DHT22;32155;54.076;12.092;2022-08-20T05:14:08;19.70;99.90
46458;DHT22;32155;54.076;12.092;2022-08-20T05:16:35;19.80;99.90
46458;DHT22;32155;54.076;12.092;2022-08-20T05:19:03;19.90;99.90
46458;DHT22;32155;54.076;12.092;2022-08-20T05:21:29;20.00;99.90
46458;DHT22;32155;54.076;12.092;2022-08-20T05:23:55;20.10;99.90
46458;DHT22;32155;54.076;12.092;2022-08-20T05:26:20;20.20;99.90
46458;DHT22;32155;54.076;12.092;2022-08-20T05:28:47;20.20;99.90
46458;DHT22;32155;54.076;12.092;2022-08-20T05:31:13;20.30;99.90
46458;DHT22;32155;54.076;12.092;2022-08-20T05:33:39;20.40;99.90
46458;DHT22;32155;54.076;12.092;2022-08-20T05:36:05;20.40;99.90
46458;DHT22;32155;54.076;12.092;2022-08-20T05:38:31;20.50;99.90
46458;DHT22;32155;54.076;12.092;2022-08-20T05:40:59;20.60;99.90
46458;DHT22;32155;54.076;12.092;2022-08-20T05:43:24;20.60;99.90
46458;DHT22;32155;54.076;12.092;2022-08-20T05:45:50;20.80;99.90
46458;DHT22;32155;54.076;12.092;2022-08-20T05:48:18;20.90;99.90
46458;DHT22;32155;54.076;12.092;2022-08-20T05:50:45;20.90;99.90
46458;DHT22;32155;54.076;12.092;2022-08-20T05:53:10;21.10;99.90
46458;DHT22;32155;54.076;12.092;2022-08-20T05:55:37;21.10;99.90
46458;DHT22;32155;54.076;12.092;2022-08-20T05:58:05;21.20;99.90
46458;DHT22;32155;54.076;12.092;2022-08-20T06:00:31;21.20;99.90
46458;DHT22;32155;54.076;12.092;2022-08-20T06:02:57;21.40;99.90
46458;DHT22;32155;54.076;12.092;2022-08-20T06:05:42;21.50;99.90
46458;DHT22;32155;54.076;12.092;2022-08-20T06:08:08;21.60;99.90
46458;DHT22;32155;54.076;12.092;2022-08-20T06:10:34;21.70;99.90
46458;DHT22;32155;54.076;12.092;2022-08-20T06:12:59;21.80;99.90
46458;DHT22;32155;54.076;12.092;2022-08-20T06:15:25;22.10;99.90
46458;DHT22;32155;54.076;12.092;2022-08-20T06:17:50;22.60;99.90
46458;DHT22;32155;54.076;12.092;2022-08-20T06:20:16;23.30;99.90
46458;DHT22;32155;54.076;12.092;2022-08-20T06:22:41;23.90;99.90
46458;DHT22;32155;54.076;12.092;2022-08-20T06:25:09;24.50;99.90
46458;DHT22;32155;54.076;12.092;2022-08-20T06:27:38;24.80;99.90
46458;DHT22;32155;54.076;12.092;2022-08-20T06:30:05;25.20;99.90
46458;DHT22;32155;54.076;12.092;2022-08-20T06:32:31;25.50;99.90
46458;DHT22;32155;54.076;12.092;2022-08-20T06:34:58;25.10;99.90
46458;DHT22;32155;54.076;12.092;2022-08-20T06:37:26;24.70;99.90
46458;DHT22;32155;54.076;12.092;2022-08-20T06:39:52;24.50;99.90
46458;DHT22;32155;54.076;12.092;2022-08-20T06:42:20;24.50;99.90
46458;DHT22;32155;54.076;12.092;2022-08-20T06:44:46;24.80;99.90
46458;DHT22;32155;54.076;12.092;2022-08-20T06:47:14;24.70;99.90
46458;DHT22;32155;54.076;12.092;2022-08-20T06:49:39;24.70;99.90
46458;DHT22;32155;54.076;12.092;2022-08-20T06:52:05;24.60;99.90
46458;DHT22;32155;54.076;12.092;2022-08-20T06:54:31;24.60;99.90
46458;DHT22;32155;54.076;12.092;2022-08-20T06:56:58;24.70;99.90
46458;DHT22;32155;54.076;12.092;2022-08-20T06:59:24;25.00;99.90
46458;DHT22;32155;54.076;12.092;2022-08-20T07:01:49;25.30;99.90
46458;DHT22;32155;54.076;12.092;2022-08-20T07:04:15;25.40;99.90
46458;DHT22;32155;54.076;12.092;2022-08-20T07:06:41;25.20;99.90
46458;DHT22;32155;54.076;12.092;2022-08-20T07:09:06;25.00;99.90
46458;DHT22;32155;54.076;12.092;2022-08-20T07:11:32;25.00;99.90
46458;DHT22;32155;54.076;12.092;2022-08-20T07:13:59;25.20;99.90
46458;DHT22;32155;54.076;12.092;2022-08-20T07:16:29;25.00;99.90
46458;DHT22;32155;54.076;12.092;2022-08-20T07:18:55;24.70;99.90
46458;DHT22;32155;54.076;12.092;2022-08-20T07:21:20;24.40;99.90
46458;DHT22;32155;54.076;12.092;2022-08-20T07:23:46;24.10;99.90
46458;DHT22;32155;54.076;12.092;2022-08-20T07:26:13;24.10;99.90
46458;DHT22;32155;54.076;12.092;2022-08-20T07:28:38;24.00;99.90
46458;DHT22;32155;54.076;12.092;2022-08-20T07:31:06;23.90;99.90
46458;DHT22;32155;54.076;12.092;2022-08-20T07:33:50;24.10;99.90
46458;DHT22;32155;54.076;12.092;2022-08-20T07:36:15;24.20;99.90
46458;DHT22;32155;54.076;12.092;2022-08-20T07:38:41;24.30;99.90
46458;DHT22;32155;54.076;12.092;2022-08-20T07:41:12;24.40;99.90
46458;DHT22;32155;54.076;12.092;2022-08-20T07:43:39;24.30;99.90
46458;DHT22;32155;54.076;12.092;2022-08-20T07:46:05;24.30;99.90
46458;DHT22;32155;54.076;12.092;2022-08-20T07:48:34;24.10;99.90
46458;DHT22;32155;54.076;12.092;2022-08-20T07:51:00;24.00;99.90
46458;DHT22;32155;54.076;12.092;2022-08-20T07:53:28;24.00;99.90
46458;DHT22;32155;54.076;12.092;2022-08-20T07:55:53;24.00;99.90
46458;DHT22;32155;54.076;12.092;2022-08-20T07:58:19;24.10;99.90
46458;DHT22;32155;54.076;12.092;2022-08-20T08:00:49;24.00;99.90
46458;DHT22;32155;54.076;12.092;2022-08-20T08:03:15;24.10;99.90
46458;DHT22;32155;54.076;12.092;2022-08-20T08:05:42;24.10;99.90
46458;DHT22;32155;54.076;12.092;2022-08-20T08:08:08;24.10;99.90
46458;DHT22;32155;54.076;12.092;2022-08-20T08:10:39;24.00;99.90
46458;DHT22;32155;54.076;12.092;2022-08-20T08:13:05;24.00;99.90
46458;DHT22;32155;54.076;12.092;2022-08-20T08:15:34;24.00;99.90
46458;DHT22;32155;54.076;12.092;2022-08-20T08:18:05;24.00;99.90
46458;DHT22;32155;54.076;12.092;2022-08-20T08:20:36;24.10;99.90
46458;DHT22;32155;54.076;12.092;2022-08-20T08:23:05;24.20;99.90
46458;DHT22;32155;54.076;12.092;2022-08-20T08:25:30;24.50;99.90
46458;DHT22;32155;54.076;12.092;2022-08-20T08:27:57;25.00;99.90
46458;DHT22;32155;54.076;12.092;2022-08-20T08:30:26;25.40;99.90
46458;DHT22;32155;54.076;12.092;2022-08-20T08:32:55;25.80;99.90
46458;DHT22;32155;54.076;12.092;2022-08-20T08:35:40;26.50;99.90
46458;DHT22;32155;54.076;12.092;2022-08-20T08:38:10;27.10;99.90
46458;DHT22;32155;54.076;12.092;2022-08-20T08:40:36;27.40;99.90
46458;DHT22;32155;54.076;12.092;2022-08-20T08:43:01;27.60;99.90
46458;DHT22;32155;54.076;12.092;2022-08-20T08:45:34;28.80;99.90
46458;DHT22;32155;54.076;12.092;2022-08-20T08:48:02;29.20;99.90
46458;DHT22;32155;54.076;12.092;2022-08-20T08:50:29;30.50;99.90
46458;DHT22;32155;54.076;12.092;2022-08-20T08:52:56;30.80;99.90
46458;DHT22;32155;54.076;12.092;2022-08-20T08:55:24;31.30;99.90
46458;DHT22;32155;54.076;12.092;2022-08-20T08:57:53;31.40;99.90
46458;DHT22;32155;54.076;12.092;2022-08-20T09:00:20;30.90;99.90
46458;DHT22;32155;54.076;12.092;2022-08-20T09:02:52;30.30;99.90
46458;DHT22;32155;54.076;12.092;2022-08-20T09:05:18;29.40;99.90
46458;DHT22;32155;54.076;12.092;2022-08-20T09:07:47;28.90;99.90
46458;DHT22;32155;54.076;12.092;2022-08-20T09:10:16;28.40;99.90
46458;DHT22;32155;54.076;12.092;2022-08-20T09:12:41;29.50;99.90
46458;DHT22;32155;54.076;12.092;2022-08-20T09:15:09;30.30;99.90
46458;DHT22;32155;54.076;12.092;2022-08-20T09:17:34;31.20;99.90
46458;DHT22;32155;54.076;12.092;2022-08-20T09:20:00;31.90;99.90
46458;DHT22;32155;54.076;12.092;2022-08-20T09:22:25;31.40;99.90
46458;DHT22;32155;54.076;12.092;2022-08-20T09:24:51;30.20;99.90
46458;DHT22;32155;54.076;12.092;2022-08-20T09:27:17;30.50;99.90
46458;DHT22;32155;54.076;12.092;2022-08-20T09:29:43;31.20;99.90
46458;DHT22;32155;54.076;12.092;2022-08-20T09:34:36;31.90;99.90
46458;DHT22;32155;54.076;12.092;2022-08-20T09:37:01;32.40;99.90
46458;DHT22;32155;54.076;12.092;2022-08-20T09:39:27;32.50;99.90
46458;DHT22;32155;54.076;12.092;2022-08-20T09:41:52;33.10;99.90
46458;DHT22;32155;54.076;12.092;2022-08-20T09:44:18;32.40;99.90
46458;DHT22;32155;54.076;12.092;2022-08-20T09:46:43;31.30;99.90
46458;DHT22;32155;54.076;12.092;2022-08-20T09:49:09;30.60;99.90
46458;DHT22;32155;54.076;12.092;2022-08-20T09:51:34;31.20;99.90
46458;DHT22;32155;54.076;12.092;2022-08-20T09:54:00;31.80;99.90
46458;DHT22;32155;54.076;12.092;2022-08-20T09:56:27;32.70;99.90
46458;DHT22;32155;54.076;12.092;2022-08-20T09:58:53;33.40;99.90
46458;DHT22;32155;54.076;12.092;2022-08-20T10:01:20;33.00;99.90
46458;DHT22;32155;54.076;12.092;2022-08-20T10:03:46;33.40;99.90
46458;DHT22;32155;54.076;12.092;2022-08-20T10:06:13;32.80;99.90
46458;DHT22;32155;54.076;12.092;2022-08-20T10:08:39;32.60;99.90
46458;DHT22;32155;54.076;12.092;2022-08-20T10:11:05;34.90;99.90
46458;DHT22;32155;54.076;12.092;2022-08-20T10:13:30;37.00;99.90
46458;DHT22;32155;54.076;12.092;2022-08-20T10:15:58;37.60;99.90
46458;DHT22;32155;54.076;12.092;2022-08-20T10:18:24;35.70;99.90
46458;DHT22;32155;54.076;12.092;2022-08-20T10:20:49;33.80;99.90
46458;DHT22;32155;54.076;12.092;2022-08-20T10:23:15;32.20;99.90
46458;DHT22;32155;54.076;12.092;2022-08-20T10:25:40;32.50;99.90
46458;DHT22;32155;54.076;12.092;2022-08-20T10:28:06;34.10;99.90
46458;DHT22;32155;54.076;12.092;2022-08-20T10:30:34;33.60;99.90
46458;DHT22;32155;54.076;12.092;2022-08-20T10:33:00;35.50;99.90
46458;DHT22;32155;54.076;12.092;2022-08-20T10:35:25;34.80;99.90
46458;DHT22;32155;54.076;12.092;2022-08-20T10:37:51;36.50;99.90
46458;DHT22;32155;54.076;12.092;2022-08-20T10:40:19;34.70;99.90
46458;DHT22;32155;54.076;12.092;2022-08-20T10:42:47;33.60;99.90
46458;DHT22;32155;54.076;12.092;2022-08-20T10:45:13;34.30;99.90
46458;DHT22;32155;54.076;12.092;2022-08-20T10:47:41;37.50;99.90
46458;DHT22;32155;54.076;12.092;2022-08-20T10:50:08;39.70;99.80
46458;DHT22;32155;54.076;12.092;2022-08-20T10:52:34;38.10;98.50
46458;DHT22;32155;54.076;12.092;2022-08-20T10:54:59;36.20;99.90
46458;DHT22;32155;54.076;12.092;2022-08-20T10:57:26;34.80;99.90
46458;DHT22;32155;54.076;12.092;2022-08-20T10:59:53;36.80;99.90
46458;DHT22;32155;54.076;12.092;2022-08-20T11:02:19;39.70;98.40
46458;DHT22;32155;54.076;12.092;2022-08-20T11:04:45;42.20;92.90
46458;DHT22;32155;54.076;12.092;2022-08-20T11:07:17;43.30;87.40
46458;DHT22;32155;54.076;12.092;2022-08-20T11:09:46;43.30;83.00
46458;DHT22;32155;54.076;12.092;2022-08-20T11:12:12;42.60;78.40
46458;DHT22;32155;54.076;12.092;2022-08-20T11:14:37;39.40;83.30
46458;DHT22;32155;54.076;12.092;2022-08-20T11:17:03;37.00;90.30
46458;DHT22;32155;54.076;12.092;2022-08-20T11:19:29;35.70;93.30
46458;DHT22;32155;54.076;12.092;2022-08-20T11:21:54;37.10;91.70
46458;DHT22;32155;54.076;12.092;2022-08-20T11:24:20;35.80;92.70
46458;DHT22;32155;54.076;12.092;2022-08-20T11:26:46;35.20;93.40
46458;DHT22;32155;54.076;12.092;2022-08-20T11:29:12;34.90;94.50
46458;DHT22;32155;54.076;12.092;2022-08-20T11:31:38;34.60;94.80
46458;DHT22;32155;54.076;12.092;2022-08-20T11:34:04;34.80;95.00
46458;DHT22;32155;54.076;12.092;2022-08-20T11:36:29;35.30;95.00
46458;DHT22;32155;54.076;12.092;2022-08-20T11:38:55;35.50;95.20
46458;DHT22;32155;54.076;12.092;2022-08-20T11:41:21;35.60;93.90
46458;DHT22;32155;54.076;12.092;2022-08-20T11:43:46;34.80;95.00
46458;DHT22;32155;54.076;12.092;2022-08-20T11:46:12;36.80;93.80
46458;DHT22;32155;54.076;12.092;2022-08-20T11:48:37;37.00;92.90
46458;DHT22;32155;54.076;12.092;2022-08-20T11:51:03;35.90;93.10
46458;DHT22;32155;54.076;12.092;2022-08-20T11:53:29;35.80;93.80
46458;DHT22;32155;54.076;12.092;2022-08-20T11:55:55;35.30;94.30
46458;DHT22;32155;54.076;12.092;2022-08-20T11:58:23;36.40;93.50
46458;DHT22;32155;54.076;12.092;2022-08-20T12:00:51;37.40;92.60
46458;DHT22;32155;54.076;12.092;2022-08-20T12:03:16;37.30;91.60
46458;DHT22;32155;54.076;12.092;2022-08-20T12:05:44;35.90;92.20
46458;DHT22;32155;54.076;12.092;2022-08-20T12:08:11;37.00;92.80
46458;DHT22;32155;54.076;12.092;2022-08-20T12:10:36;38.00;90.90
46458;DHT22;32155;54.076;12.092;2022-08-20T12:13:02;37.40;91.70
46458;DHT22;32155;54.076;12.092;2022-08-20T12:15:28;38.60;90.70
46458;DHT22;32155;54.076;12.092;2022-08-20T12:17:54;39.60;87.70
46458;DHT22;32155;54.076;12.092;2022-08-20T12:20:20;38.80;89.20
46458;DHT22;32155;54.076;12.092;2022-08-20T12:22:46;40.30;86.00
46458;DHT22;32155;54.076;12.092;2022-08-20T12:25:12;41.30;82.60
46458;DHT22;32155;54.076;12.092;2022-08-20T12:27:37;40.60;80.80
46458;DHT22;32155;54.076;12.092;2022-08-20T12:30:05;41.00;78.80
46458;DHT22;32155;54.076;12.092;2022-08-20T12:32:32;40.20;78.50
46458;DHT22;32155;54.076;12.092;2022-08-20T12:34:58;38.40;80.20
46458;DHT22;32155;54.076;12.092;2022-08-20T12:37:25;38.60;81.30
46458;DHT22;32155;54.076;12.092;2022-08-20T12:39:51;39.40;79.70
46458;DHT22;32155;54.076;12.092;2022-08-20T12:42:17;39.50;76.30
46458;DHT22;32155;54.076;12.092;2022-08-20T12:44:44;39.20;77.00
46458;DHT22;32155;54.076;12.092;2022-08-20T12:47:52;39.10;76.60
46458;DHT22;32155;54.076;12.092;2022-08-20T12:50:03;38.80;75.60
46458;DHT22;32155;54.076;12.092;2022-08-20T12:52:29;38.20;76.80
46458;DHT22;32155;54.076;12.092;2022-08-20T12:54:57;37.80;75.50
46458;DHT22;32155;54.076;12.092;2022-08-20T12:59:55;35.40;80.80
46458;DHT22;32155;54.076;12.092;2022-08-20T13:02:20;34.70;81.60
46458;DHT22;32155;54.076;12.092;2022-08-20T13:04:46;34.20;84.20
46458;DHT22;32155;54.076;12.092;2022-08-20T13:07:12;33.90;83.80
46458;DHT22;32155;54.076;12.092;2022-08-20T13:09:40;33.60;83.90
46458;DHT22;32155;54.076;12.092;2022-08-20T13:12:06;33.30;84.40
46458;DHT22;32155;54.076;12.092;2022-08-20T13:16:58;33.40;83.90
46458;DHT22;32155;54.076;12.092;2022-08-20T13:19:24;33.30;84.70
46458;DHT22;32155;54.076;12.092;2022-08-20T13:21:50;32.60;85.40
46458;DHT22;32155;54.076;12.092;2022-08-20T13:24:16;32.00;87.30
46458;DHT22;32155;54.076;12.092;2022-08-20T13:26:41;31.40;88.40
46458;DHT22;32155;54.076;12.092;2022-08-20T13:29:07;30.80;88.50
46458;DHT22;32155;54.076;12.092;2022-08-20T13:34:03;29.80;91.60
46458;DHT22;32155;54.076;12.092;2022-08-20T13:36:29;29.50;91.80
46458;DHT22;32155;54.076;12.092;2022-08-20T13:38:54;29.20;91.90
46458;DHT22;32155;54.076;12.092;2022-08-20T13:41:20;28.90;91.70
46458;DHT22;32155;54.076;12.092;2022-08-20T13:43:48;28.70;92.90
46458;DHT22;32155;54.076;12.092;2022-08-20T13:46:13;28.40;93.60
46458;DHT22;32155;54.076;12.092;2022-08-20T13:48:39;28.30;93.60
46458;DHT22;32155;54.076;12.092;2022-08-20T13:51:04;28.20;93.90
46458;DHT22;32155;54.076;12.092;2022-08-20T13:53:30;28.00;94.90
46458;DHT22;32155;54.076;12.092;2022-08-20T13:55:55;27.80;95.50
46458;DHT22;32155;54.076;12.092;2022-08-20T13:58:21;27.70;96.30
46458;DHT22;32155;54.076;12.092;2022-08-20T14:00:47;27.70;97.20
46458;DHT22;32155;54.076;12.092;2022-08-20T14:03:13;27.70;97.90
46458;DHT22;32155;54.076;12.092;2022-08-20T14:05:41;27.60;97.90
46458;DHT22;32155;54.076;12.092;2022-08-20T14:08:08;27.50;98.40
46458;DHT22;32155;54.076;12.092;2022-08-20T14:10:34;27.60;99.20
46458;DHT22;32155;54.076;12.092;2022-08-20T14:13:00;27.60;99.90
46458;DHT22;32155;54.076;12.092;2022-08-20T14:15:28;27.60;99.90
46458;DHT22;32155;54.076;12.092;2022-08-20T14:17:54;27.50;99.90
46458;DHT22;32155;54.076;12.092;2022-08-20T14:20:23;27.40;99.90
46458;DHT22;32155;54.076;12.092;2022-08-20T14:22:49;27.20;99.90
46458;DHT22;32155;54.076;12.092;2022-08-20T14:25:16;27.30;99.90
46458;DHT22;32155;54.076;12.092;2022-08-20T14:27:42;27.10;99.90
46458;DHT22;32155;54.076;12.092;2022-08-20T14:30:08;27.00;99.90
46458;DHT22;32155;54.076;12.092;2022-08-20T14:32:34;27.00;99.90
46458;DHT22;32155;54.076;12.092;2022-08-20T14:34:59;27.10;99.90
46458;DHT22;32155;54.076;12.092;2022-08-20T14:37:28;27.00;99.90
46458;DHT22;32155;54.076;12.092;2022-08-20T14:39:54;27.20;99.90
46458;DHT22;32155;54.076;12.092;2022-08-20T14:42:26;27.40;99.90
46458;DHT22;32155;54.076;12.092;2022-08-20T14:44:53;27.50;99.90
46458;DHT22;32155;54.076;12.092;2022-08-20T14:47:20;27.50;99.90
46458;DHT22;32155;54.076;12.092;2022-08-20T14:49:49;27.50;99.90
46458;DHT22;32155;54.076;12.092;2022-08-20T14:52:16;27.60;99.90
46458;DHT22;32155;54.076;12.092;2022-08-20T14:54:42;27.30;99.90
46458;DHT22;32155;54.076;12.092;2022-08-20T14:57:08;27.00;99.90
46458;DHT22;32155;54.076;12.092;2022-08-20T14:59:37;26.80;99.90
46458;DHT22;32155;54.076;12.092;2022-08-20T15:02:06;26.60;99.90
46458;DHT22;32155;54.076;12.092;2022-08-20T15:04:32;26.30;99.90
46458;DHT22;32155;54.076;12.092;2022-08-20T15:06:58;26.10;99.90
46458;DHT22;32155;54.076;12.092;2022-08-20T15:09:24;26.00;99.90
46458;DHT22;32155;54.076;12.092;2022-08-20T15:11:49;25.90;99.90
46458;DHT22;32155;54.076;12.092;2022-08-20T15:14:15;26.00;99.90
46458;DHT22;32155;54.076;12.092;2022-08-20T15:16:40;26.00;99.90
46458;DHT22;32155;54.076;12.092;2022-08-20T15:19:09;26.00;99.90
46458;DHT22;32155;54.076;12.092;2022-08-20T15:21:37;25.90;99.90
46458;DHT22;32155;54.076;12.092;2022-08-20T15:24:05;25.90;99.90
46458;DHT22;32155;54.076;12.092;2022-08-20T15:26:30;25.90;99.90
46458;DHT22;32155;54.076;12.092;2022-08-20T15:28:56;25.90;99.90
46458;DHT22;32155;54.076;12.092;2022-08-20T15:31:21;25.90;99.90
46458;DHT22;32155;54.076;12.092;2022-08-20T15:33:47;26.00;99.90
46458;DHT22;32155;54.076;12.092;2022-08-20T15:36:13;25.90;99.90
46458;DHT22;32155;54.076;12.092;2022-08-20T15:38:39;25.80;99.90
46458;DHT22;32155;54.076;12.092;2022-08-20T15:41:05;25.80;99.90
46458;DHT22;32155;54.076;12.092;2022-08-20T15:43:33;25.70;99.90
46458;DHT22;32155;54.076;12.092;2022-08-20T15:45:59;25.70;99.90
46458;DHT22;32155;54.076;12.092;2022-08-20T15:48:29;25.80;99.90
46458;DHT22;32155;54.076;12.092;2022-08-20T15:50:58;25.80;99.90
46458;DHT22;32155;54.076;12.092;2022-08-20T15:56:03;25.60;99.90
46458;DHT22;32155;54.076;12.092;2022-08-20T16:06:27;25.50;99.90
46458;DHT22;32155;54.076;12.092;2022-08-20T16:16:46;25.40;99.90
46458;DHT22;32155;54.076;12.092;2022-08-20T16:19:44;25.20;99.90